Time;durP1;ratioP1;P1;durP2;ratioP2;P2;SDS_P1;SDS_P2;PMS_P1;PMS_P2;Temp;Humidity;BMP_temperature;BMP_pressure;BME280_temperature;BME280_humidity;BME280_pressure;Samples;Min_cycle;Max_cycle;Signal;HPM_P1;HPM_P2
2022/04/12 00:00:42;;;;;;;15.60;8.23;;;;;;;;;;4450182;32;20339;-53
2022/04/12 00:03:09;;;;;;;24.30;9.77;;;;;;;;;;4450122;32;20217;-53
2022/04/12 00:05:35;;;;;;;25.23;12.43;;;;;;;;;;4451873;32;20309;-55
2022/04/12 00:08:01;;;;;;;26.43;11.10;;;;;;;;;;4449844;32;20292;-53
2022/04/12 00:10:28;;;;;;;29.77;11.93;;;;;;;;;;4449446;32;20271;-53
2022/04/12 00:12:55;;;;;;;30.70;11.87;;;;;;;;;;4458646;32;20526;-52
2022/04/12 00:15:20;;;;;;;26.83;11.33;;;;;;;;;;4465120;32;20322;-53
2022/04/12 00:20:30;;;;;;;23.13;9.63;;;;;;;;;;4464601;32;20723;-53
2022/04/12 00:22:59;;;;;;;17.03;9.10;;;;;;;;;;4450298;32;20209;-53
2022/04/12 00:25:26;;;;;;;20.07;10.57;;;;;;;;;;4449646;32;20720;-53
2022/04/12 00:27:53;;;;;;;23.70;12.47;;;;;;;;;;4449498;32;20708;-53
2022/04/12 00:30:19;;;;;;;23.53;13.63;;;;;;;;;;4448800;32;20237;-53
2022/04/12 00:32:45;;;;;;;24.47;10.47;;;;;;;;;;4449667;32;20287;-53
2022/04/12 00:35:11;;;;;;;31.13;14.57;;;;;;;;;;4449248;32;20279;-54
2022/04/12 00:37:36;;;;;;;42.10;18.10;;;;;;;;;;4449341;32;20326;-51
2022/04/12 00:40:04;;;;;;;28.13;15.63;;;;;;;;;;4449340;32;20374;-53
2022/04/12 00:42:29;;;;;;;28.13;13.90;;;;;;;;;;4449368;32;20220;-52
2022/04/12 00:44:55;;;;;;;31.63;15.70;;;;;;;;;;4449424;32;20338;-53
2022/04/12 00:47:20;;;;;;;23.77;11.33;;;;;;;;;;4450365;32;20333;-52
2022/04/12 00:49:46;;;;;;;20.20;11.50;;;;;;;;;;4448928;32;20322;-52
2022/04/12 00:52:11;;;;;;;17.67;8.37;;;;;;;;;;4449161;32;20205;-52
2022/04/12 00:54:38;;;;;;;11.07;6.37;;;;;;;;;;4448684;32;20306;-52
2022/04/12 00:57:05;;;;;;;8.63;5.40;;;;;;;;;;4448870;32;20239;-51
2022/04/12 00:59:34;;;;;;;7.53;3.87;;;;;;;;;;4449433;32;20223;-52
2022/04/12 01:02:04;;;;;;;7.20;4.57;;;;;;;;;;4456779;32;20620;-51
2022/04/12 01:04:30;;;;;;;10.80;4.87;;;;;;;;;;4462726;32;20219;-52
2022/04/12 01:06:56;;;;;;;5.83;3.37;;;;;;;;;;4447722;32;20216;-51
2022/04/12 01:09:26;;;;;;;6.43;3.83;;;;;;;;;;4448774;32;20294;-51
2022/04/12 01:11:55;;;;;;;6.63;3.00;;;;;;;;;;4449026;32;20201;-51
2022/04/12 01:14:22;;;;;;;7.57;3.33;;;;;;;;;;4449129;32;20228;-51
2022/04/12 01:16:47;;;;;;;4.83;3.20;;;;;;;;;;4448750;32;20211;-51
2022/04/12 01:19:13;;;;;;;5.10;3.43;;;;;;;;;;4449154;32;20220;-52
2022/04/12 01:22:04;;;;;;;7.73;4.37;;;;;;;;;;4448803;32;20228;-52
2022/04/12 01:24:32;;;;;;;15.57;7.47;;;;;;;;;;4448657;32;20192;-51
2022/04/12 01:26:57;;;;;;;15.83;7.33;;;;;;;;;;4449077;32;20256;-52
2022/04/12 01:29:24;;;;;;;16.97;6.30;;;;;;;;;;4448616;32;20268;-51
2022/04/12 01:31:50;;;;;;;24.57;6.47;;;;;;;;;;4448631;32;20220;-52
2022/04/12 01:34:15;;;;;;;19.50;7.33;;;;;;;;;;4448959;32;20296;-52
2022/04/12 01:36:41;;;;;;;13.63;6.97;;;;;;;;;;4448862;32;20204;-52
2022/04/12 01:39:06;;;;;;;13.73;7.23;;;;;;;;;;4448773;32;20240;-52
2022/04/12 01:41:32;;;;;;;16.50;7.83;;;;;;;;;;4448034;32;20231;-52
2022/04/12 01:43:57;;;;;;;18.97;7.80;;;;;;;;;;4448869;32;20287;-52
2022/04/12 01:46:23;;;;;;;17.40;8.50;;;;;;;;;;4447168;32;20609;-51
2022/04/12 01:48:49;;;;;;;21.37;10.73;;;;;;;;;;4449708;32;20822;-52
2022/04/12 01:51:16;;;;;;;19.67;9.70;;;;;;;;;;4448468;32;20356;-52
2022/04/12 01:53:42;;;;;;;22.67;9.97;;;;;;;;;;4448474;32;20233;-51
2022/04/12 01:56:07;;;;;;;22.90;12.03;;;;;;;;;;4447156;32;20329;-51
2022/04/12 01:58:34;;;;;;;25.07;11.57;;;;;;;;;;4447052;32;20284;-51
2022/04/12 02:01:00;;;;;;;14.40;8.33;;;;;;;;;;4448483;32;20534;-51
2022/04/12 02:03:25;;;;;;;15.83;7.53;;;;;;;;;;4448489;32;20419;-53
2022/04/12 02:05:51;;;;;;;19.10;6.50;;;;;;;;;;4448556;32;20298;-52
2022/04/12 02:08:20;;;;;;;18.83;7.73;;;;;;;;;;4448575;32;20240;-52
2022/04/12 02:10:45;;;;;;;15.00;7.97;;;;;;;;;;4448075;32;20339;-52
2022/04/12 02:13:10;;;;;;;16.50;7.57;;;;;;;;;;4446950;32;20212;-52
2022/04/12 02:15:36;;;;;;;14.00;7.53;;;;;;;;;;4448264;32;20373;-51
2022/04/12 02:18:01;;;;;;;13.83;6.87;;;;;;;;;;4448066;32;20693;-51
2022/04/12 02:20:27;;;;;;;17.47;7.20;;;;;;;;;;4448172;32;20268;-51
2022/04/12 02:22:53;;;;;;;19.10;7.67;;;;;;;;;;4447972;32;20265;-52
2022/04/12 02:25:19;;;;;;;20.63;9.07;;;;;;;;;;4447882;32;20740;-52
2022/04/12 02:27:44;;;;;;;17.17;8.07;;;;;;;;;;4448000;32;20303;-52
2022/04/12 02:30:10;;;;;;;15.23;8.13;;;;;;;;;;4447765;32;20462;-53
2022/04/12 02:32:36;;;;;;;23.63;10.20;;;;;;;;;;4448052;32;20269;-52
2022/04/12 02:35:02;;;;;;;34.67;15.37;;;;;;;;;;4447874;32;20297;-53
2022/04/12 02:37:28;;;;;;;79.33;37.07;;;;;;;;;;4447751;32;20240;-52
2022/04/12 02:39:53;;;;;;;47.57;23.27;;;;;;;;;;4447710;32;20271;-53
2022/04/12 02:42:19;;;;;;;32.83;14.83;;;;;;;;;;4448039;32;20197;-52
2022/04/12 02:44:44;;;;;;;20.73;10.90;;;;;;;;;;4447864;32;20339;-51
2022/04/12 02:47:10;;;;;;;24.97;11.43;;;;;;;;;;4449349;32;20279;-51
2022/04/12 02:49:35;;;;;;;35.97;11.43;;;;;;;;;;4447596;32;20287;-51
2022/04/12 02:52:01;;;;;;;23.07;9.47;;;;;;;;;;4447825;32;20213;-52
2022/04/12 02:54:26;;;;;;;17.90;9.33;;;;;;;;;;4456422;32;20287;-52
2022/04/12 02:56:52;;;;;;;15.83;8.13;;;;;;;;;;4466128;32;20850;-52
2022/04/12 02:59:17;;;;;;;13.87;7.83;;;;;;;;;;4466008;32;20584;-52
2022/04/12 03:01:43;;;;;;;11.57;7.50;;;;;;;;;;4466255;32;20256;-52
2022/04/12 03:04:08;;;;;;;21.30;9.47;;;;;;;;;;4463057;32;20434;-52
2022/04/12 03:06:34;;;;;;;28.70;13.63;;;;;;;;;;4449790;32;20232;-52
2022/04/12 03:08:59;;;;;;;22.80;13.67;;;;;;;;;;4450578;32;20251;-52
2022/04/12 03:11:25;;;;;;;21.70;13.63;;;;;;;;;;4451784;32;20276;-52
2022/04/12 03:13:51;;;;;;;29.10;11.67;;;;;;;;;;4451137;32;20248;-52
2022/04/12 03:16:17;;;;;;;17.73;10.60;;;;;;;;;;4449387;32;20374;-51
2022/04/12 03:18:43;;;;;;;15.50;8.70;;;;;;;;;;4450844;32;20381;-51
2022/04/12 03:21:08;;;;;;;42.57;15.97;;;;;;;;;;4450437;32;20613;-52
2022/04/12 03:23:33;;;;;;;38.40;17.13;;;;;;;;;;4449172;32;20364;-52
2022/04/12 03:25:59;;;;;;;21.90;15.03;;;;;;;;;;4450217;32;20291;-52
2022/04/12 03:28:24;;;;;;;48.67;24.20;;;;;;;;;;4450388;32;20366;-53
2022/04/12 03:30:50;;;;;;;38.33;21.30;;;;;;;;;;4457515;32;20881;-52
2022/04/12 03:33:15;;;;;;;26.03;12.10;;;;;;;;;;4464833;32;20258;-52
2022/04/12 03:35:42;;;;;;;20.23;12.50;;;;;;;;;;4465996;32;20287;-51
2022/04/12 03:38:07;;;;;;;22.03;12.30;;;;;;;;;;4465725;32;20536;-52
2022/04/12 03:40:33;;;;;;;21.53;11.73;;;;;;;;;;4464963;32;20280;-52
2022/04/12 03:43:04;;;;;;;24.33;12.07;;;;;;;;;;4465967;32;20227;-52
2022/04/12 03:45:30;;;;;;;28.13;14.27;;;;;;;;;;4464568;32;20180;-52
2022/04/12 03:47:56;;;;;;;25.87;13.90;;;;;;;;;;4463984;32;20724;-52
2022/04/12 03:50:23;;;;;;;38.33;17.70;;;;;;;;;;4460746;32;20236;-51
2022/04/12 03:52:49;;;;;;;35.07;19.23;;;;;;;;;;4450074;32;20717;-52
2022/04/12 03:55:15;;;;;;;40.60;18.23;;;;;;;;;;4449862;32;20640;-52
2022/04/12 03:57:41;;;;;;;39.40;19.47;;;;;;;;;;4450059;32;20292;-52
2022/04/12 04:00:08;;;;;;;31.93;18.43;;;;;;;;;;4448944;32;20267;-54
2022/04/12 04:02:36;;;;;;;49.13;22.33;;;;;;;;;;4450388;32;20224;-51
2022/04/12 04:05:03;;;;;;;60.00;25.27;;;;;;;;;;4454238;32;20204;-53
2022/04/12 04:07:29;;;;;;;68.23;30.57;;;;;;;;;;4449590;32;20228;-52
2022/04/12 04:09:54;;;;;;;70.93;33.67;;;;;;;;;;4450149;32;20711;-52
2022/04/12 04:12:20;;;;;;;79.03;36.03;;;;;;;;;;4448319;32;20231;-52
2022/04/12 04:14:47;;;;;;;136.10;52.80;;;;;;;;;;4449273;32;20854;-51
2022/04/12 04:17:13;;;;;;;225.47;91.07;;;;;;;;;;4449214;32;20243;-52
2022/04/12 04:19:38;;;;;;;265.47;99.90;;;;;;;;;;4448629;32;20715;-54
2022/04/12 04:22:04;;;;;;;257.93;100.90;;;;;;;;;;4449749;32;20213;-54
2022/04/12 04:24:29;;;;;;;285.37;109.80;;;;;;;;;;4461753;32;20358;-52
2022/04/12 04:26:55;;;;;;;261.83;99.07;;;;;;;;;;4465408;32;20746;-51
2022/04/12 04:29:24;;;;;;;256.53;96.37;;;;;;;;;;4465369;32;20518;-52
2022/04/12 04:31:53;;;;;;;342.10;114.03;;;;;;;;;;4451156;32;20268;-51
2022/04/12 04:34:19;;;;;;;303.87;107.67;;;;;;;;;;4449282;32;20259;-51
2022/04/12 04:36:44;;;;;;;181.00;65.47;;;;;;;;;;4449402;32;20217;-52
2022/04/12 04:39:10;;;;;;;157.40;59.67;;;;;;;;;;4449294;32;20224;-53
2022/04/12 04:41:35;;;;;;;139.70;56.20;;;;;;;;;;4449364;32;20730;-53
2022/04/12 04:44:00;;;;;;;96.37;46.57;;;;;;;;;;4447943;32;20243;-52
2022/04/12 04:46:26;;;;;;;82.60;36.43;;;;;;;;;;4452513;32;20242;-54
2022/04/12 04:48:51;;;;;;;64.10;27.27;;;;;;;;;;4462711;32;20276;-52
2022/04/12 04:51:17;;;;;;;61.37;29.73;;;;;;;;;;4463807;32;20353;-54
2022/04/12 04:53:49;;;;;;;93.07;40.30;;;;;;;;;;4463693;32;20295;-52
2022/04/12 04:56:14;;;;;;;66.40;30.43;;;;;;;;;;4464434;32;20208;-53
2022/04/12 04:58:39;;;;;;;72.80;31.57;;;;;;;;;;4449659;32;20404;-51
2022/04/12 05:01:05;;;;;;;78.00;37.23;;;;;;;;;;4447747;32;20358;-52
2022/04/12 05:03:30;;;;;;;93.90;42.27;;;;;;;;;;4448803;32;20529;-51
2022/04/12 05:05:56;;;;;;;59.70;35.67;;;;;;;;;;4453563;32;20323;-53
2022/04/12 05:08:21;;;;;;;50.77;24.43;;;;;;;;;;4449846;32;20251;-53
2022/04/12 05:10:47;;;;;;;45.00;21.40;;;;;;;;;;4449854;32;20302;-53
2022/04/12 05:13:12;;;;;;;50.40;22.87;;;;;;;;;;4449249;32;20251;-53
2022/04/12 05:15:38;;;;;;;39.23;21.20;;;;;;;;;;4448394;32;21290;-53
2022/04/12 05:18:04;;;;;;;35.87;18.30;;;;;;;;;;4447620;32;20831;-52
2022/04/12 05:20:29;;;;;;;28.70;15.87;;;;;;;;;;4447691;32;20290;-52
2022/04/12 05:22:55;;;;;;;24.63;13.90;;;;;;;;;;4448380;32;20299;-52
2022/04/12 05:25:21;;;;;;;25.17;12.43;;;;;;;;;;4448402;32;20318;-55
2022/04/12 05:27:46;;;;;;;30.50;13.03;;;;;;;;;;4448230;32;20251;-52
2022/04/12 05:30:13;;;;;;;30.10;11.57;;;;;;;;;;4451304;32;20518;-51
2022/04/12 05:32:39;;;;;;;22.17;10.97;;;;;;;;;;4463639;32;20259;-51
2022/04/12 05:35:06;;;;;;;25.60;13.67;;;;;;;;;;4462440;32;20333;-51
2022/04/12 05:37:39;;;;;;;30.80;12.57;;;;;;;;;;4461311;32;20232;-52
2022/04/12 05:40:05;;;;;;;25.70;14.70;;;;;;;;;;4461907;32;20212;-53
2022/04/12 05:42:30;;;;;;;36.77;11.43;;;;;;;;;;4458905;32;20212;-52
2022/04/12 05:44:56;;;;;;;18.80;11.37;;;;;;;;;;4444880;32;20216;-52
2022/04/12 05:47:21;;;;;;;28.10;15.27;;;;;;;;;;4445752;32;20291;-52
2022/04/12 05:49:47;;;;;;;26.90;15.27;;;;;;;;;;4444771;32;20618;-51
2022/04/12 05:52:12;;;;;;;33.60;17.57;;;;;;;;;;4447372;32;20566;-52
2022/04/12 05:54:38;;;;;;;40.67;16.17;;;;;;;;;;4448234;32;20317;-53
2022/04/12 05:57:03;;;;;;;27.30;13.97;;;;;;;;;;4447349;32;20745;-53
2022/04/12 05:59:29;;;;;;;44.77;18.33;;;;;;;;;;4449046;32;20283;-53
2022/04/12 06:01:54;;;;;;;41.87;21.57;;;;;;;;;;4448300;32;20288;-53
2022/04/12 06:04:20;;;;;;;52.90;24.73;;;;;;;;;;4449629;32;20718;-53
2022/04/12 06:06:45;;;;;;;51.00;20.63;;;;;;;;;;4451239;32;20213;-52
2022/04/12 06:09:11;;;;;;;51.30;22.80;;;;;;;;;;4446665;32;20244;-52
2022/04/12 06:11:36;;;;;;;51.00;22.03;;;;;;;;;;4449743;32;20296;-52
2022/04/12 06:14:02;;;;;;;65.40;25.07;;;;;;;;;;4463180;32;20220;-53
2022/04/12 06:16:27;;;;;;;57.17;24.67;;;;;;;;;;4454162;32;20299;-54
2022/04/12 06:18:53;;;;;;;45.30;21.73;;;;;;;;;;4447522;32;20236;-52
2022/04/12 06:21:19;;;;;;;51.27;21.07;;;;;;;;;;4447326;32;20553;-53
2022/04/12 06:23:45;;;;;;;63.10;22.93;;;;;;;;;;4447924;32;20307;-53
2022/04/12 06:26:10;;;;;;;46.10;21.33;;;;;;;;;;4447652;32;20394;-51
2022/04/12 06:28:36;;;;;;;62.90;24.07;;;;;;;;;;4448095;32;20338;-54
2022/04/12 06:31:01;;;;;;;42.70;20.27;;;;;;;;;;4446178;32;20677;-51
2022/04/12 06:33:28;;;;;;;41.60;17.27;;;;;;;;;;4447981;32;20263;-52
2022/04/12 06:35:53;;;;;;;53.20;21.30;;;;;;;;;;4447471;32;20220;-53
2022/04/12 06:38:19;;;;;;;40.50;18.87;;;;;;;;;;4447388;32;20250;-54
2022/04/12 06:40:45;;;;;;;40.60;16.87;;;;;;;;;;4446988;32;20291;-53
2022/04/12 06:43:11;;;;;;;35.47;14.70;;;;;;;;;;4447557;32;20354;-53
2022/04/12 06:45:38;;;;;;;32.17;15.53;;;;;;;;;;4447488;32;20196;-53
2022/04/12 06:48:03;;;;;;;29.70;13.13;;;;;;;;;;4455483;32;20228;-53
2022/04/12 06:50:29;;;;;;;24.97;13.40;;;;;;;;;;4451883;32;20385;-53
2022/04/12 06:52:56;;;;;;;28.30;12.53;;;;;;;;;;4445036;32;20390;-53
2022/04/12 06:55:22;;;;;;;24.70;11.43;;;;;;;;;;4447208;32;20277;-53
2022/04/12 06:57:47;;;;;;;23.03;10.80;;;;;;;;;;4446833;32;20350;-52
2022/04/12 07:00:13;;;;;;;27.17;13.27;;;;;;;;;;4447573;32;20291;-54
2022/04/12 07:02:39;;;;;;;27.57;13.83;;;;;;;;;;4446769;32;20281;-52
2022/04/12 07:05:06;;;;;;;30.10;12.97;;;;;;;;;;4445907;32;20319;-53
2022/04/12 07:07:34;;;;;;;24.90;11.50;;;;;;;;;;4446698;32;20271;-53
2022/04/12 07:10:00;;;;;;;24.87;10.47;;;;;;;;;;4446132;32;20284;-53
2022/04/12 07:12:25;;;;;;;24.90;11.27;;;;;;;;;;4451893;32;20279;-53
2022/04/12 07:14:51;;;;;;;16.80;9.37;;;;;;;;;;4461191;32;20660;-55
2022/04/12 07:17:17;;;;;;;22.77;8.83;;;;;;;;;;4462512;32;20274;-53
2022/04/12 07:19:42;;;;;;;24.73;9.67;;;;;;;;;;4462276;32;20299;-53
2022/04/12 07:22:10;;;;;;;17.07;8.97;;;;;;;;;;4462531;32;20268;-53
2022/04/12 07:24:36;;;;;;;21.00;8.87;;;;;;;;;;4462427;32;20288;-52
2022/04/12 07:27:02;;;;;;;18.43;8.60;;;;;;;;;;4462882;32;20639;-52
2022/04/12 07:29:27;;;;;;;21.97;9.23;;;;;;;;;;4462024;32;20291;-54
2022/04/12 07:31:53;;;;;;;20.87;7.93;;;;;;;;;;4448626;32;20651;-52
2022/04/12 07:34:18;;;;;;;16.37;8.20;;;;;;;;;;4447372;32;20664;-53
2022/04/12 07:36:47;;;;;;;21.23;8.33;;;;;;;;;;4446897;32;20204;-53
2022/04/12 07:39:14;;;;;;;18.77;6.83;;;;;;;;;;4447165;32;20304;-54
2022/04/12 07:41:40;;;;;;;12.83;7.23;;;;;;;;;;4449734;32;20701;-53
2022/04/12 07:44:06;;;;;;;17.13;6.77;;;;;;;;;;4449785;32;20229;-52
2022/04/12 07:46:31;;;;;;;9.73;5.23;;;;;;;;;;4449565;32;20208;-53
2022/04/12 07:48:57;;;;;;;22.83;7.40;;;;;;;;;;4450668;32;20278;-55
2022/04/12 07:51:23;;;;;;;12.37;5.97;;;;;;;;;;4448990;32;20682;-52
2022/04/12 07:53:48;;;;;;;13.87;7.03;;;;;;;;;;4449903;32;20288;-54
2022/04/12 07:56:14;;;;;;;9.73;5.50;;;;;;;;;;4449016;32;20644;-55
2022/04/12 07:58:39;;;;;;;18.43;5.27;;;;;;;;;;4448325;32;20364;-54
2022/04/12 08:01:05;;;;;;;15.83;6.23;;;;;;;;;;4447931;32;20506;-54
2022/04/12 08:03:30;;;;;;;11.83;4.57;;;;;;;;;;4448505;32;20308;-56
2022/04/12 08:05:56;;;;;;;9.03;3.90;;;;;;;;;;4453616;32;20332;-54
2022/04/12 08:08:22;;;;;;;8.70;4.70;;;;;;;;;;4464671;32;20270;-55
2022/04/12 08:10:47;;;;;;;7.00;3.90;;;;;;;;;;4465105;32;20607;-54
2022/04/12 08:13:13;;;;;;;9.50;4.30;;;;;;;;;;4464780;32;20228;-55
2022/04/12 08:15:38;;;;;;;8.87;3.63;;;;;;;;;;4449559;32;20362;-55
2022/04/12 08:18:05;;;;;;;5.47;3.63;;;;;;;;;;4449287;32;20642;-55
2022/04/12 08:20:31;;;;;;;7.17;5.47;;;;;;;;;;4449258;32;20272;-54
2022/04/12 08:22:57;;;;;;;10.53;4.07;;;;;;;;;;4449210;32;20220;-56
2022/04/12 08:25:23;;;;;;;7.93;4.53;;;;;;;;;;4447777;32;20725;-56
2022/04/12 08:27:49;;;;;;;4.33;3.60;;;;;;;;;;4448102;32;20742;-56
2022/04/12 08:30:15;;;;;;;4.70;2.63;;;;;;;;;;4448872;32;20268;-57
2022/04/12 08:32:40;;;;;;;6.60;4.10;;;;;;;;;;4460748;32;20220;-54
2022/04/12 08:35:07;;;;;;;5.80;3.93;;;;;;;;;;4463065;32;20607;-54
2022/04/12 08:37:32;;;;;;;8.03;4.87;;;;;;;;;;4464137;32;20254;-56
2022/04/12 08:39:58;;;;;;;8.30;4.23;;;;;;;;;;4463226;32;20287;-57
2022/04/12 08:42:23;;;;;;;9.37;4.67;;;;;;;;;;4465100;32;20470;-55
2022/04/12 08:44:50;;;;;;;4.07;2.70;;;;;;;;;;4464466;32;20255;-57
2022/04/12 08:47:18;;;;;;;6.83;4.40;;;;;;;;;;4460508;32;20352;-54
2022/04/12 08:49:44;;;;;;;13.23;4.70;;;;;;;;;;4447767;32;20271;-54
2022/04/12 08:52:12;;;;;;;9.80;3.30;;;;;;;;;;4448500;32;20209;-54
2022/04/12 08:54:40;;;;;;;5.33;3.50;;;;;;;;;;4449075;32;20245;-55
2022/04/12 08:57:06;;;;;;;18.13;8.40;;;;;;;;;;4448720;32;20271;-55
2022/04/12 08:59:32;;;;;;;6.67;3.90;;;;;;;;;;4448566;32;20290;-55
2022/04/12 09:01:58;;;;;;;9.73;4.07;;;;;;;;;;4448598;32;20272;-55
2022/04/12 09:04:26;;;;;;;6.47;4.73;;;;;;;;;;4448971;32;20255;-54
2022/04/12 09:06:59;;;;;;;5.63;3.20;;;;;;;;;;4460689;32;20283;-55
2022/04/12 09:09:29;;;;;;;4.23;2.93;;;;;;;;;;4464422;32;20370;-55
2022/04/12 09:11:58;;;;;;;9.90;4.23;;;;;;;;;;4464189;32;20575;-54
2022/04/12 09:14:25;;;;;;;7.93;2.93;;;;;;;;;;4464031;32;20259;-56
2022/04/12 09:16:52;;;;;;;7.67;4.57;;;;;;;;;;4462775;32;20217;-55
2022/04/12 09:19:44;;;;;;;6.63;3.73;;;;;;;;;;4463279;32;20668;-55
2022/04/12 09:22:22;;;;;;;5.87;3.53;;;;;;;;;;4452839;32;20565;-56
2022/04/12 09:24:54;;;;;;;6.90;2.40;;;;;;;;;;4464238;32;20219;-56
2022/04/12 09:27:22;;;;;;;10.20;2.90;;;;;;;;;;4455119;32;20212;-56
2022/04/12 09:29:56;;;;;;;7.93;3.43;;;;;;;;;;4448429;32;20596;-58
2022/04/12 09:32:27;;;;;;;5.17;2.93;;;;;;;;;;4458158;32;20545;-55
2022/04/12 09:34:54;;;;;;;6.80;4.63;;;;;;;;;;4462595;32;20283;-57
2022/04/12 09:37:24;;;;;;;10.83;4.30;;;;;;;;;;4463915;32;20242;-55
2022/04/12 09:39:59;;;;;;;5.47;3.40;;;;;;;;;;4463853;32;20196;-55
2022/04/12 09:42:41;;;;;;;8.10;4.73;;;;;;;;;;4463591;32;20349;-55
2022/04/12 09:45:10;;;;;;;8.77;4.10;;;;;;;;;;4447327;32;20242;-55
2022/04/12 09:47:35;;;;;;;4.27;2.93;;;;;;;;;;4449425;32;20339;-55
2022/04/12 09:50:01;;;;;;;9.53;3.87;;;;;;;;;;4448502;32;20223;-55
2022/04/12 09:52:27;;;;;;;6.67;3.20;;;;;;;;;;4448169;32;20335;-55
2022/04/12 09:54:57;;;;;;;3.47;2.87;;;;;;;;;;4448121;32;20660;-55
2022/04/12 09:57:23;;;;;;;6.47;3.43;;;;;;;;;;4447372;32;20213;-55
2022/04/12 09:59:50;;;;;;;4.97;2.63;;;;;;;;;;4448017;32;20204;-55
2022/04/12 10:02:16;;;;;;;9.73;3.60;;;;;;;;;;4457530;32;20355;-55
2022/04/12 10:04:44;;;;;;;4.50;2.90;;;;;;;;;;4460310;32;20684;-55
2022/04/12 10:07:11;;;;;;;7.87;2.70;;;;;;;;;;4461450;32;20689;-54
2022/04/12 10:09:38;;;;;;;7.77;3.77;;;;;;;;;;4463866;32;20705;-54
2022/04/12 10:12:08;;;;;;;7.37;3.77;;;;;;;;;;4463617;32;20625;-54
2022/04/12 10:14:34;;;;;;;10.27;4.07;;;;;;;;;;4463285;32;20231;-56
2022/04/12 10:17:01;;;;;;;6.10;3.77;;;;;;;;;;4463735;32;20231;-55
2022/04/12 10:19:27;;;;;;;8.27;3.80;;;;;;;;;;4462142;32;20239;-55
2022/04/12 10:21:53;;;;;;;5.23;2.77;;;;;;;;;;4463273;32;20196;-54
2022/04/12 10:24:19;;;;;;;11.17;3.17;;;;;;;;;;4463153;32;20257;-55
2022/04/12 10:26:46;;;;;;;10.87;3.30;;;;;;;;;;4458056;32;20212;-54
2022/04/12 10:29:13;;;;;;;7.30;3.23;;;;;;;;;;4447454;32;20587;-54
2022/04/12 10:31:53;;;;;;;9.67;3.93;;;;;;;;;;4452711;32;20228;-56
2022/04/12 10:34:19;;;;;;;11.23;2.93;;;;;;;;;;4463200;32;20286;-55
2022/04/12 10:37:08;;;;;;;8.57;2.40;;;;;;;;;;4462871;32;20330;-55
2022/04/12 10:39:46;;;;;;;6.90;3.00;;;;;;;;;;4461905;32;20243;-55
2022/04/12 10:42:18;;;;;;;5.93;2.50;;;;;;;;;;4447606;32;20256;-55
2022/04/12 10:44:46;;;;;;;7.67;2.83;;;;;;;;;;4447742;32;20197;-56
2022/04/12 10:47:27;;;;;;;9.97;3.33;;;;;;;;;;4450497;32;20197;-55
2022/04/12 10:50:04;;;;;;;4.17;2.80;;;;;;;;;;4445866;32;20193;-55
2022/04/12 10:52:42;;;;;;;4.30;1.97;;;;;;;;;;4456059;32;20272;-55
2022/04/12 10:55:11;;;;;;;6.57;2.17;;;;;;;;;;4445159;32;20362;-54
2022/04/12 10:57:37;;;;;;;2.27;1.60;;;;;;;;;;4450112;32;20326;-55
2022/04/12 11:00:10;;;;;;;3.30;2.30;;;;;;;;;;4451163;32;20355;-55
2022/04/12 11:02:37;;;;;;;4.77;2.70;;;;;;;;;;4447656;32;20456;-56
2022/04/12 11:05:03;;;;;;;5.17;3.00;;;;;;;;;;4452480;32;20755;-55
2022/04/12 11:07:34;;;;;;;8.07;2.33;;;;;;;;;;4450138;32;20322;-54
2022/04/12 11:10:25;;;;;;;4.63;2.27;;;;;;;;;;4451052;32;20263;-55
2022/04/12 11:13:07;;;;;;;4.73;2.70;;;;;;;;;;4443198;32;20738;-55
2022/04/12 11:15:33;;;;;;;3.40;1.87;;;;;;;;;;4449018;32;20609;-54
2022/04/12 11:18:10;;;;;;;6.47;2.53;;;;;;;;;;4451907;32;20686;-55
2022/04/12 11:20:37;;;;;;;5.43;2.80;;;;;;;;;;4448741;32;20754;-55
2022/04/12 11:23:12;;;;;;;3.35;1.90;;;;;;;;;;4462601;32;20695;-55
2022/04/12 11:25:49;;;;;;;7.07;2.80;;;;;;;;;;4447748;32;20234;-55
2022/04/12 11:28:17;;;;;;;5.37;2.27;;;;;;;;;;4450814;32;20232;-56
2022/04/12 11:30:58;;;;;;;5.07;2.47;;;;;;;;;;4456106;32;20213;-56
2022/04/12 11:33:28;;;;;;;4.67;2.70;;;;;;;;;;4448783;32;20296;-54
2022/04/12 11:35:55;;;;;;;3.53;2.17;;;;;;;;;;4458448;32;20401;-56
2022/04/12 11:38:22;;;;;;;5.83;2.23;;;;;;;;;;4452163;32;20621;-54
2022/04/12 11:40:48;;;;;;;3.45;2.00;;;;;;;;;;4459415;32;20257;-56
2022/04/12 11:43:25;;;;;;;5.70;2.33;;;;;;;;;;4462055;32;20323;-56
2022/04/12 11:45:53;;;;;;;4.65;2.03;;;;;;;;;;4449733;32;20196;-57
2022/04/12 11:48:19;;;;;;;4.60;2.50;;;;;;;;;;4457094;32;20311;-56
2022/04/12 11:50:52;;;;;;;5.07;2.10;;;;;;;;;;4463220;32;20236;-56
2022/04/12 11:53:20;;;;;;;7.82;3.00;;;;;;;;;;4463948;32;20465;-56
2022/04/12 11:55:46;;;;;;;4.57;1.92;;;;;;;;;;4448377;32;20284;-56
2022/04/12 11:58:12;;;;;;;3.73;2.00;;;;;;;;;;4457104;32;20406;-56
2022/04/12 12:00:38;;;;;;;4.93;2.30;;;;;;;;;;4450440;32;21016;-56
2022/04/12 12:03:04;;;;;;;7.50;3.62;;;;;;;;;;4448234;32;20283;-54
2022/04/12 12:05:33;;;;;;;2.47;1.92;;;;;;;;;;4448227;32;20641;-54
2022/04/12 12:07:59;;;;;;;4.07;1.85;;;;;;;;;;4461787;32;20299;-54
2022/04/12 12:10:24;;;;;;;6.15;2.90;;;;;;;;;;4452785;32;20543;-55
2022/04/12 12:12:50;;;;;;;3.65;2.33;;;;;;;;;;4462796;32;20254;-54
2022/04/12 12:15:24;;;;;;;7.47;2.75;;;;;;;;;;4449807;32;20614;-55
2022/04/12 12:17:52;;;;;;;3.65;2.00;;;;;;;;;;4458575;32;20342;-55
2022/04/12 12:20:19;;;;;;;3.30;1.73;;;;;;;;;;4453173;32;20317;-55
2022/04/12 12:22:46;;;;;;;7.22;2.03;;;;;;;;;;4447064;32;20330;-55
2022/04/12 12:25:24;;;;;;;4.68;2.20;;;;;;;;;;4453748;32;20234;-54
2022/04/12 12:27:54;;;;;;;3.28;1.85;;;;;;;;;;4454750;32;20220;-55
2022/04/12 12:30:25;;;;;;;2.92;1.75;;;;;;;;;;4453971;32;20228;-55
2022/04/12 12:32:52;;;;;;;4.53;2.25;;;;;;;;;;4454822;32;20600;-56
2022/04/12 12:35:19;;;;;;;3.42;2.00;;;;;;;;;;4462405;32;20311;-55
2022/04/12 12:37:46;;;;;;;6.05;1.80;;;;;;;;;;4464547;32;20761;-56
2022/04/12 12:40:23;;;;;;;2.87;1.65;;;;;;;;;;4465237;32;20212;-56
2022/04/12 12:42:51;;;;;;;3.45;1.58;;;;;;;;;;4465509;32;20279;-55
2022/04/12 12:45:22;;;;;;;4.03;2.10;;;;;;;;;;4465633;32;20200;-55
2022/04/12 12:47:51;;;;;;;6.10;3.50;;;;;;;;;;4460615;32;20340;-54
2022/04/12 12:50:18;;;;;;;1.92;1.62;;;;;;;;;;4459704;32;20697;-55
2022/04/12 12:52:44;;;;;;;2.37;1.70;;;;;;;;;;4449604;32;20788;-55
2022/04/12 12:55:24;;;;;;;3.05;1.70;;;;;;;;;;4449319;32;20750;-56
2022/04/12 13:01:12;;;;;;;2.10;1.20;;;;;;;;;;4449589;32;20561;-55
2022/04/12 13:03:38;;;;;;;6.68;2.95;;;;;;;;;;4449457;32;20263;-54
2022/04/12 13:06:03;;;;;;;4.87;2.78;;;;;;;;;;4456315;32;20246;-55
2022/04/12 13:08:32;;;;;;;3.37;2.08;;;;;;;;;;4464971;32;20232;-55
2022/04/12 13:11:00;;;;;;;2.97;1.95;;;;;;;;;;4464760;32;20606;-55
2022/04/12 13:13:26;;;;;;;2.87;1.90;;;;;;;;;;4464358;32;20311;-55
2022/04/12 13:16:01;;;;;;;6.50;2.10;;;;;;;;;;4464559;32;20335;-55
2022/04/12 13:18:28;;;;;;;11.70;1.85;;;;;;;;;;4464431;32;20299;-55
2022/04/12 13:20:53;;;;;;;2.75;1.80;;;;;;;;;;4464720;32;20204;-56
2022/04/12 13:23:18;;;;;;;3.65;1.75;;;;;;;;;;4464522;32;20276;-55
2022/04/12 13:25:44;;;;;;;5.40;2.05;;;;;;;;;;4464286;32;20249;-55
2022/04/12 13:28:09;;;;;;;4.15;1.60;;;;;;;;;;4452079;32;20307;-56
2022/04/12 13:30:35;;;;;;;2.42;1.65;;;;;;;;;;4448679;32;20291;-56
2022/04/12 13:33:00;;;;;;;10.68;1.80;;;;;;;;;;4449188;32;20713;-55
2022/04/12 13:35:26;;;;;;;17.58;1.77;;;;;;;;;;4449017;32;20328;-56
2022/04/12 13:37:52;;;;;;;3.42;1.62;;;;;;;;;;4447421;32;20220;-56
2022/04/12 13:40:17;;;;;;;6.93;1.98;;;;;;;;;;4448917;32;20371;-57
2022/04/12 13:42:46;;;;;;;2.55;1.60;;;;;;;;;;4448615;32;20284;-55
2022/04/12 13:45:16;;;;;;;5.60;1.60;;;;;;;;;;4448220;32;20279;-55
2022/04/12 13:47:42;;;;;;;2.80;1.60;;;;;;;;;;4454297;32;20244;-55
2022/04/12 13:50:09;;;;;;;2.17;1.33;;;;;;;;;;4464107;32;20234;-54
2022/04/12 13:52:34;;;;;;;5.75;1.60;;;;;;;;;;4464042;32;20240;-55
2022/04/12 13:55:00;;;;;;;2.15;1.45;;;;;;;;;;4464010;32;20266;-56
2022/04/12 13:57:25;;;;;;;3.78;1.50;;;;;;;;;;4461788;32;20260;-56
2022/04/12 13:59:51;;;;;;;7.43;1.40;;;;;;;;;;4464267;32;20271;-57
2022/04/12 14:02:16;;;;;;;2.95;1.77;;;;;;;;;;4463798;32;20550;-57
2022/04/12 14:04:42;;;;;;;7.03;1.95;;;;;;;;;;4460507;32;20771;-55
2022/04/12 14:07:09;;;;;;;4.50;2.33;;;;;;;;;;4447798;32;20235;-54
2022/04/12 14:09:34;;;;;;;2.83;1.45;;;;;;;;;;4448396;32;20272;-55
2022/04/12 14:12:00;;;;;;;6.12;2.20;;;;;;;;;;4448787;32;20231;-56
2022/04/12 14:14:25;;;;;;;7.97;2.33;;;;;;;;;;4448307;32;20332;-56
2022/04/12 14:16:51;;;;;;;2.55;1.30;;;;;;;;;;4447065;32;20232;-56
2022/04/12 14:19:17;;;;;;;2.92;1.35;;;;;;;;;;4446288;32;20232;-56
2022/04/12 14:21:43;;;;;;;4.28;2.60;;;;;;;;;;4460060;32;20261;-55
2022/04/12 14:24:09;;;;;;;3.42;1.58;;;;;;;;;;4460437;32;20231;-55
2022/04/12 14:26:36;;;;;;;4.82;2.05;;;;;;;;;;4449776;32;20235;-55
2022/04/12 14:29:04;;;;;;;4.30;2.25;;;;;;;;;;4455655;32;20280;-55
2022/04/12 14:31:30;;;;;;;3.50;1.80;;;;;;;;;;4446423;32;20280;-55
2022/04/12 14:33:56;;;;;;;2.50;1.58;;;;;;;;;;4445872;32;20390;-55
2022/04/12 14:36:21;;;;;;;3.80;1.87;;;;;;;;;;4445989;32;20235;-54